Time;durP1;ratioP1;P1;durP2;ratioP2;P2;SDS_P1;SDS_P2;PMS_P1;PMS_P2;Temp;Humidity;BMP_temperature;BMP_pressure;BME280_temperature;BME280_humidity;BME280_pressure;Samples;Min_cycle;Max_cycle;Signal;HPM_P1;HPM_P2
2022/11/16 00:01:07;;;;;;;;;;;;;;;26.91;49.50;96619.81;610701;232;67178;-69
2022/11/16 00:03:35;;;;;;;;;;;;;;;26.91;49.46;96619.81;610737;232;66991;-69
2022/11/16 00:06:04;;;;;;;;;;;;;;;26.90;48.13;96619.02;610736;232;62680;-69
2022/11/16 00:08:33;;;;;;;;;;;;;;;26.90;48.74;96615.52;610742;232;67352;-69
2022/11/16 00:11:05;;;;;;;;;;;;;;;26.89;47.99;96608.55;610778;232;64633;-69
2022/11/16 00:13:33;;;;;;;;;;;;;;;26.88;49.46;96610.45;610706;232;62982;-69
2022/11/16 00:16:01;;;;;;;;;;;;;;;26.87;47.00;96602.67;610726;232;64980;-69
2022/11/16 00:18:28;;;;;;;;;;;;;;;26.87;47.86;96605.37;610704;232;65163;-69
2022/11/16 00:20:56;;;;;;;;;;;;;;;26.87;48.18;96599.98;610738;232;65031;-69
2022/11/16 00:23:23;;;;;;;;;;;;;;;26.85;47.93;96594.13;610784;232;67075;-69
2022/11/16 00:25:52;;;;;;;;;;;;;;;26.85;50.70;96589.53;610739;232;67036;-69
2022/11/16 00:28:19;;;;;;;;;;;;;;;26.83;48.82;96596.34;610692;232;65000;-69
2022/11/16 00:30:47;;;;;;;;;;;;;;;26.82;47.38;96587.47;610735;232;67065;-69
2022/11/16 00:33:15;;;;;;;;;;;;;;;26.82;48.88;96589.35;610705;232;64865;-69
2022/11/16 00:35:43;;;;;;;;;;;;;;;26.81;48.76;96582.39;610745;232;65812;-69
2022/11/16 00:38:11;;;;;;;;;;;;;;;26.79;48.83;96582.69;610766;232;64438;-69
2022/11/16 00:40:38;;;;;;;;;;;;;;;26.79;50.20;96585.39;610692;232;64570;-69
2022/11/16 00:43:06;;;;;;;;;;;;;;;26.78;48.28;96592.69;610716;232;65752;-69
2022/11/16 00:45:34;;;;;;;;;;;;;;;26.78;49.38;96583.81;610731;232;67423;-70
2022/11/16 00:48:02;;;;;;;;;;;;;;;26.75;49.55;96582.55;610742;232;64458;-70
2022/11/16 00:50:30;;;;;;;;;;;;;;;26.75;50.30;96574.46;609698;232;65554;-70
2022/11/16 00:52:58;;;;;;;;;;;;;;;26.75;49.13;96576.38;608009;233;67804;-70
2022/11/16 00:55:27;;;;;;;;;;;;;;;26.74;49.70;96588.28;607983;233;66885;-70
2022/11/16 00:57:55;;;;;;;;;;;;;;;26.74;47.69;96574.80;601589;233;66602;-70
2022/11/16 01:00:23;;;;;;;;;;;;;;;26.72;47.48;96571.63;608030;233;64587;-70
2022/11/16 01:02:54;;;;;;;;;;;;;;;26.73;48.80;96575.89;608065;233;65490;-70
2022/11/16 01:05:22;;;;;;;;;;;;;;;26.71;47.50;96568.14;607997;233;62957;-70
2022/11/16 01:07:51;;;;;;;;;;;;;;;26.70;48.69;96566.53;607958;233;64584;-70
2022/11/16 01:10:20;;;;;;;;;;;;;;;26.68;47.46;96558.00;608023;233;64794;-70
2022/11/16 01:12:48;;;;;;;;;;;;;;;26.68;48.04;96560.70;608012;233;64902;-70
2022/11/16 01:15:16;;;;;;;;;;;;;;;26.67;49.01;96545.61;608062;233;68000;-70
2022/11/16 01:17:44;;;;;;;;;;;;;;;26.67;47.47;96558.30;608074;233;66824;-65
2022/11/16 01:20:14;;;;;;;;;;;;;;;26.65;48.03;96550.52;607988;233;64993;-65
2022/11/16 01:22:42;;;;;;;;;;;;;;;26.64;49.19;96548.95;607998;233;65213;-65
2022/11/16 01:25:10;;;;;;;;;;;;;;;26.63;49.21;96544.69;608042;233;66809;-65
2022/11/16 01:27:38;;;;;;;;;;;;;;;26.63;49.92;96547.38;607991;233;65037;-70
2022/11/16 01:30:08;;;;;;;;;;;;;;;26.62;50.13;96540.38;608003;233;44540;-70
2022/11/16 01:32:37;;;;;;;;;;;;;;;26.60;48.64;96539.94;607978;233;65992;-71
2022/11/16 01:35:06;;;;;;;;;;;;;;;26.60;49.99;96539.94;607960;233;65612;-70
2022/11/16 01:37:34;;;;;;;;;;;;;;;26.59;47.58;96537.55;608013;233;67893;-71
2022/11/16 01:40:03;;;;;;;;;;;;;;;26.59;49.31;96532.94;607996;233;65720;-70
2022/11/16 01:42:32;;;;;;;;;;;;;;;26.57;51.02;96527.07;608065;233;62917;-66
2022/11/16 01:45:03;;;;;;;;;;;;;;;26.55;49.37;96527.41;608006;233;64550;-65
2022/11/16 01:47:30;;;;;;;;;;;;;;;26.53;48.70;96524.23;607976;233;65021;-65
2022/11/16 01:50:01;;;;;;;;;;;;;;;26.53;49.06;96521.53;608428;232;65154;-65
2022/11/16 01:52:31;;;;;;;;;;;;;;;26.52;47.87;96519.97;610733;232;43656;-69
2022/11/16 01:55:00;;;;;;;;;;;;;;;26.52;49.69;96513.78;610693;232;64509;-69
2022/11/16 01:57:31;;;;;;;;;;;;;;;26.52;50.54;96522.66;610720;232;41658;-69
2022/11/16 02:00:01;;;;;;;;;;;;;;;26.50;49.27;96516.76;610755;232;44371;-70
2022/11/16 02:02:31;;;;;;;;;;;;;;;26.49;49.43;96517.06;610413;232;44355;-70
2022/11/16 02:04:59;;;;;;;;;;;;;;;26.49;50.05;96519.76;610705;232;63739;-70
2022/11/16 02:10:50;;;;;;;;;;;;;;;26.46;49.12;96496.15;610719;232;67383;-71
2022/11/16 02:13:19;;;;;;;;;;;;;;;26.45;52.13;96497.27;610728;232;62950;-70
2022/11/16 02:15:48;;;;;;;;;;;;;;;26.43;50.31;96492.19;610570;232;65773;-70
2022/11/16 02:18:29;;;;;;;;;;;;;;;26.42;50.78;96487.92;610647;232;45284;-70
2022/11/16 02:21:14;;;;;;;;;;;;;;;26.42;50.28;96484.44;609989;232;63723;-70
2022/11/16 02:23:43;;;;;;;;;;;;;;;26.42;50.43;96490.62;610700;232;65146;-70
2022/11/16 02:26:28;;;;;;;;;;;;;;;26.41;49.90;96482.84;610546;232;67437;-70
2022/11/16 02:29:14;;;;;;;;;;;;;;;26.39;48.97;96475.09;610689;232;65060;-70
2022/11/16 02:31:44;;;;;;;;;;;;;;;26.38;49.43;96465.41;610696;232;67652;-70
2022/11/16 02:34:13;;;;;;;;;;;;;;;26.38;51.75;96467.31;610607;232;67351;-70
2022/11/16 02:36:42;;;;;;;;;;;;;;;26.35;49.79;96464.17;610712;232;65203;-70
2022/11/16 02:39:12;;;;;;;;;;;;;;;26.35;50.72;96464.17;610679;232;65162;-70
2022/11/16 02:41:41;;;;;;;;;;;;;;;26.33;49.02;96450.22;610716;232;66758;-70
2022/11/16 02:44:15;;;;;;;;;;;;;;;26.34;51.20;96457.19;610693;232;64829;-65
2022/11/16 02:46:43;;;;;;;;;;;;;;;26.31;50.58;96449.74;610487;232;67260;-65
2022/11/16 02:49:12;;;;;;;;;;;;;;;26.31;49.11;96441.66;610674;232;64971;-70
2022/11/16 02:51:40;;;;;;;;;;;;;;;26.30;51.56;96450.86;608320;232;63898;-69
2022/11/16 02:54:11;;;;;;;;;;;;;;;26.29;49.66;96443.88;607952;233;67188;-69
2022/11/16 02:56:44;;;;;;;;;;;;;;;26.29;50.04;96446.57;607986;233;65587;-70
2022/11/16 02:59:11;;;;;;;;;;;;;;;26.28;49.98;96439.61;607989;233;62668;-70
2022/11/16 03:01:40;;;;;;;;;;;;;;;26.27;50.36;96438.04;608042;233;67377;-70
2022/11/16 03:04:10;;;;;;;;;;;;;;;26.28;51.19;96441.52;608023;233;67242;-70
2022/11/16 03:06:40;;;;;;;;;;;;;;;26.26;50.09;96436.44;607911;233;66176;-70
2022/11/16 03:09:12;;;;;;;;;;;;;;;26.25;51.42;96426.78;608026;233;66758;-70
2022/11/16 03:11:59;;;;;;;;;;;;;;;26.24;49.68;96432.48;607956;233;66879;-70
2022/11/16 03:14:30;;;;;;;;;;;;;;;26.22;49.45;96427.42;608035;233;65733;-69
2022/11/16 03:16:58;;;;;;;;;;;;;;;26.20;50.13;96418.86;608053;233;67452;-69
2022/11/16 03:19:35;;;;;;;;;;;;;;;26.19;51.30;96422.69;608040;233;64880;-69
2022/11/16 03:22:04;;;;;;;;;;;;;;;26.19;50.49;96425.38;608057;233;63496;-70
2022/11/16 03:24:32;;;;;;;;;;;;;;;26.18;51.43;96417.59;608048;233;67467;-66
2022/11/16 03:27:07;;;;;;;;;;;;;;;26.17;51.55;96418.72;608034;233;66698;-65
2022/11/16 03:29:36;;;;;;;;;;;;;;;26.17;50.07;96419.51;606972;233;65191;-66
2022/11/16 03:32:15;;;;;;;;;;;;;;;26.16;50.32;96419.81;608096;233;43972;-66
2022/11/16 03:34:44;;;;;;;;;;;;;;;26.15;50.34;96420.94;607867;233;69429;-66
2022/11/16 03:37:12;;;;;;;;;;;;;;;26.13;51.02;96423.94;607880;233;63744;-66
2022/11/16 03:39:41;;;;;;;;;;;;;;;26.12;50.56;96417.77;607969;233;67659;-66
2022/11/16 03:42:10;;;;;;;;;;;;;;;26.11;48.42;96418.88;608015;233;64978;-66
2022/11/16 03:44:38;;;;;;;;;;;;;;;26.11;51.77;96412.71;608057;233;65607;-66
2022/11/16 03:47:06;;;;;;;;;;;;;;;26.10;49.25;96408.41;601659;233;68681;-66
2022/11/16 03:49:34;;;;;;;;;;;;;;;26.09;50.55;96407.63;608017;233;64890;-64
2022/11/16 03:52:01;;;;;;;;;;;;;;;26.09;49.40;96398.77;608030;233;65129;-64
2022/11/16 03:54:30;;;;;;;;;;;;;;;26.05;50.18;96403.98;607982;233;64720;-65
2022/11/16 03:56:58;;;;;;;;;;;;;;;26.05;51.07;96395.91;608043;233;67164;-65
2022/11/16 03:59:25;;;;;;;;;;;;;;;26.05;50.29;96384.34;608062;233;65711;-65
2022/11/16 04:01:53;;;;;;;;;;;;;;;26.04;50.33;96388.16;608022;233;65809;-65
2022/11/16 04:29:15;;;;;;;;;;;;;;;25.93;52.07;96376.14;608027;233;64886;-65
2022/11/16 04:40:01;;;;;;;;;;;;;;;25.89;51.05;96374.09;608012;233;65748;-71
2022/11/16 04:42:29;;;;;;;;;;;;;;;25.88;51.87;96369.00;608000;233;67704;-71
2022/11/16 04:47:50;;;;;;;;;;;;;;;25.86;50.15;96366.66;608046;232;47867;-71
2022/11/16 04:50:21;;;;;;;;;;;;;;;25.84;50.06;96360.78;608783;232;67739;-70
2022/11/16 04:52:49;;;;;;;;;;;;;;;25.85;52.91;96359.66;610707;232;64404;-70
2022/11/16 04:55:16;;;;;;;;;;;;;;;25.84;51.83;96363.48;610740;232;65217;-70
2022/11/16 04:57:44;;;;;;;;;;;;;;;25.81;52.06;96366.78;610723;232;64405;-70
2022/11/16 05:00:13;;;;;;;;;;;;;;;25.83;53.09;96367.26;610714;232;64818;-70
2022/11/16 05:02:40;;;;;;;;;;;;;;;25.81;51.48;96363.27;610703;232;62984;-70
2022/11/16 05:05:08;;;;;;;;;;;;;;;25.80;52.85;96365.17;610717;232;64856;-70
2022/11/16 05:07:37;;;;;;;;;;;;;;;25.78;51.42;96350.45;610709;232;64996;-70
2022/11/16 05:10:06;;;;;;;;;;;;;;;25.79;53.03;96342.08;610632;232;43956;-70
2022/11/16 05:12:34;;;;;;;;;;;;;;;25.78;52.61;96351.27;610756;232;64894;-70
2022/11/16 05:15:04;;;;;;;;;;;;;;;25.77;51.28;96344.28;610763;232;66686;-70
2022/11/16 05:17:32;;;;;;;;;;;;;;;25.76;52.02;96350.78;610683;232;65055;-70
2022/11/16 05:22:54;;;;;;;;;;;;;;;25.77;52.90;96346.98;610691;232;48500;-70
2022/11/16 05:25:23;;;;;;;;;;;;;;;25.77;53.77;96348.88;610758;232;65722;-70
2022/11/16 05:27:51;;;;;;;;;;;;;;;25.74;52.35;96347.61;611469;232;66209;-70
2022/11/16 05:30:19;;;;;;;;;;;;;;;25.74;50.92;96344.14;610669;232;64945;-70
2022/11/16 05:32:46;;;;;;;;;;;;;;;25.75;52.32;96348.40;610735;232;65166;-70
2022/11/16 05:35:14;;;;;;;;;;;;;;;25.74;50.31;96353.00;610696;232;65216;-70
2022/11/16 05:37:43;;;;;;;;;;;;;;;25.74;52.45;96347.61;610727;232;67432;-70
2022/11/16 05:40:11;;;;;;;;;;;;;;;25.74;50.52;96339.55;610787;232;65900;-71
2022/11/16 05:42:42;;;;;;;;;;;;;;;25.74;50.92;96341.45;609836;232;46603;-70
2022/11/16 05:45:10;;;;;;;;;;;;;;;25.74;48.98;96336.84;610706;232;68373;-70
2022/11/16 05:47:37;;;;;;;;;;;;;;;25.75;54.06;96345.71;610716;232;65095;-70
2022/11/16 05:50:05;;;;;;;;;;;;;;;25.74;52.82;96344.14;610099;232;65382;-70
2022/11/16 05:52:34;;;;;;;;;;;;;;;25.74;50.44;96336.84;607974;233;44681;-70
2022/11/16 05:55:04;;;;;;;;;;;;;;;25.75;52.08;96330.34;608028;233;42603;-70
2022/11/16 05:57:33;;;;;;;;;;;;;;;25.74;52.56;96334.16;608010;233;45945;-70
2022/11/16 06:00:01;;;;;;;;;;;;;;;25.75;52.08;96329.56;607992;233;66976;-70
2022/11/16 06:02:31;;;;;;;;;;;;;;;25.75;50.38;96329.56;608069;233;42466;-70
2022/11/16 06:04:59;;;;;;;;;;;;;;;25.76;53.29;96341.93;608070;233;67454;-70
2022/11/16 06:07:27;;;;;;;;;;;;;;;25.76;51.87;96334.64;607969;233;65670;-71
2022/11/16 06:09:55;;;;;;;;;;;;;;;25.75;49.42;96335.73;607921;233;65234;-72
2022/11/16 06:12:23;;;;;;;;;;;;;;;25.77;52.65;96330.05;607239;233;64933;-71
2022/11/16 06:14:50;;;;;;;;;;;;;;;25.77;46.61;96328.14;605091;234;64851;-70
2022/11/16 06:17:18;;;;;;;;;;;;;;;25.77;50.60;96321.97;605130;234;65135;-70
2022/11/16 06:19:45;;;;;;;;;;;;;;;25.77;46.16;96319.28;604242;232;67148;-69
2022/11/16 06:22:13;;;;;;;;;;;;;;;25.77;52.14;96314.68;605180;234;64832;-70
2022/11/16 06:24:40;;;;;;;;;;;;;;;25.80;51.19;96313.25;605414;234;64829;-70
2022/11/16 06:27:08;;;;;;;;;;;;;;;25.78;47.55;96310.08;604120;234;67967;-70
2022/11/16 06:29:35;;;;;;;;;;;;;;;25.80;48.72;96315.95;605544;234;64348;-70
2022/11/16 06:32:03;;;;;;;;;;;;;;;25.80;49.21;96314.04;605581;234;63535;-70
2022/11/16 06:34:32;;;;;;;;;;;;;;;25.80;47.36;96314.04;605398;234;67060;-70
2022/11/16 06:36:59;;;;;;;;;;;;;;;25.81;48.47;96309.44;605487;234;68053;-71
2022/11/16 06:39:29;;;;;;;;;;;;;;;25.82;52.14;96301.06;605550;234;65809;-71
2022/11/16 06:41:59;;;;;;;;;;;;;;;25.83;52.61;96307.23;605375;234;67254;-70
2022/11/16 06:44:27;;;;;;;;;;;;;;;25.82;50.58;96306.44;599222;234;68364;-70
2022/11/16 06:46:56;;;;;;;;;;;;;;;25.82;49.84;96302.97;605456;234;42058;-71
2022/11/16 06:49:24;;;;;;;;;;;;;;;25.83;48.49;96304.53;605479;234;64559;-70
2022/11/16 06:51:52;;;;;;;;;;;;;;;25.83;52.20;96294.59;609950;232;67365;-70
2022/11/16 06:54:19;;;;;;;;;;;;;;;25.84;48.98;96303.47;610215;232;65005;-69
2022/11/16 06:56:47;;;;;;;;;;;;;;;25.84;48.81;96298.88;610276;232;66866;-69
2022/11/16 06:59:15;;;;;;;;;;;;;;;25.86;49.25;96296.66;610257;232;64580;-71
2022/11/16 07:01:43;;;;;;;;;;;;;;;25.86;52.26;96285.89;609586;232;65658;-72
2022/11/16 07:04:12;;;;;;;;;;;;;;;25.86;49.29;96285.89;604433;232;66024;-71
2022/11/16 07:06:41;;;;;;;;;;;;;;;25.87;53.04;96279.39;610221;232;45674;-72
2022/11/16 07:09:10;;;;;;;;;;;;;;;25.87;52.61;96281.30;604815;232;65746;-71
2022/11/16 07:11:40;;;;;;;;;;;;;;;25.89;51.98;96287.95;604640;234;67171;-75
2022/11/16 07:14:08;;;;;;;;;;;;;;;25.90;52.54;96286.04;604573;234;66835;-73
2022/11/16 07:16:36;;;;;;;;;;;;;;;25.91;53.70;96285.70;604502;234;62788;-70
2022/11/16 07:19:05;;;;;;;;;;;;;;;25.91;51.34;96279.53;604653;234;67395;-73
2022/11/16 07:21:33;;;;;;;;;;;;;;;25.93;51.03;96281.92;604628;234;64533;-69
2022/11/16 07:24:02;;;;;;;;;;;;;;;25.92;49.15;96278.44;604599;234;65703;-70
2022/11/16 07:26:31;;;;;;;;;;;;;;;25.93;53.17;96271.94;608247;233;64793;-69
2022/11/16 07:29:03;;;;;;;;;;;;;;;25.94;50.93;96283.48;609264;233;44768;-69
2022/11/16 07:31:31;;;;;;;;;;;;;;;25.94;48.70;96283.48;602869;233;64818;-70
2022/11/16 07:34:10;;;;;;;;;;;;;;;25.94;48.10;96272.72;594775;238;48034;-69
2022/11/16 07:36:39;;;;;;;;;;;;;;;25.96;53.73;96270.50;600954;235;47066;-70
2022/11/16 07:39:09;;;;;;;;;;;;;;;25.97;53.78;96264.78;600725;236;63782;-70
2022/11/16 07:41:37;;;;;;;;;;;;;;;25.97;53.32;96261.31;600640;236;63730;-71
2022/11/16 07:44:07;;;;;;;;;;;;;;;25.97;51.40;96253.23;600466;236;46498;-70
2022/11/16 07:46:34;;;;;;;;;;;;;;;25.98;49.08;96266.38;609347;233;65279;-71
2022/11/16 07:49:03;;;;;;;;;;;;;;;25.98;49.14;96262.91;600654;236;67806;-71
2022/11/16 07:51:41;;;;;;;;;;;;;;;25.99;50.33;96267.95;596480;235;49052;-74
2022/11/16 07:54:14;;;;;;;;;;;;;;;26.00;52.66;96258.78;607150;233;46460;-72
2022/11/16 07:56:42;;;;;;;;;;;;;;;26.01;53.53;96254.97;607387;233;65000;-70
2022/11/16 07:59:10;;;;;;;;;;;;;;;26.02;51.60;96255.75;607349;233;67487;-74
2022/11/16 08:01:39;;;;;;;;;;;;;;;26.02;52.31;96251.16;607387;233;43939;-76
2022/11/16 08:04:07;;;;;;;;;;;;;;;26.03;51.27;96249.27;607409;233;64474;-70
2022/11/16 08:06:35;;;;;;;;;;;;;;;26.03;45.99;96243.89;607372;233;67602;-70
2022/11/16 08:09:02;;;;;;;;;;;;;;;26.05;51.81;96239.73;607436;233;64644;-71
2022/11/16 08:11:31;;;;;;;;;;;;;;;26.06;54.57;96233.25;607086;233;67304;-70
2022/11/16 08:13:59;;;;;;;;;;;;;;;26.06;53.40;96232.47;606782;233;67995;-70
2022/11/16 08:16:28;;;;;;;;;;;;;;;26.06;55.02;96241.33;607351;233;63653;-70
2022/11/16 08:18:57;;;;;;;;;;;;;;;26.07;51.69;96231.34;607120;233;44682;-71
2022/11/16 08:21:25;;;;;;;;;;;;;;;26.08;55.14;96224.84;607411;233;67003;-71
2022/11/16 08:23:53;;;;;;;;;;;;;;;26.07;53.74;96221.36;607371;233;63001;-70
2022/11/16 08:26:21;;;;;;;;;;;;;;;26.08;55.28;96227.53;607363;233;67378;-71
2022/11/16 08:28:52;;;;;;;;;;;;;;;26.09;54.55;96223.75;607211;233;45775;-71
2022/11/16 08:31:23;;;;;;;;;;;;;;;26.10;56.22;96219.92;607329;233;46560;-74
2022/11/16 08:33:52;;;;;;;;;;;;;;;26.09;52.25;96215.66;607445;233;67498;-73
2022/11/16 08:36:20;;;;;;;;;;;;;;;26.12;54.24;96217.70;607395;233;67556;-73
2022/11/16 08:38:49;;;;;;;;;;;;;;;26.13;56.98;96219.28;607397;233;62901;-71
2022/11/16 08:41:19;;;;;;;;;;;;;;;26.13;55.08;96206.59;605699;233;67234;-73
2022/11/16 08:43:49;;;;;;;;;;;;;;;26.13;55.16;96209.29;604318;234;67491;-72
2022/11/16 08:46:16;;;;;;;;;;;;;;;26.15;51.25;96213.58;604378;234;66616;-74
2022/11/16 08:48:45;;;;;;;;;;;;;;;26.15;53.81;96206.28;604345;233;45639;-72
2022/11/16 08:51:16;;;;;;;;;;;;;;;26.16;53.84;96202.47;604796;232;68577;-71
2022/11/16 08:53:46;;;;;;;;;;;;;;;26.18;54.63;96197.55;605119;234;46670;-66
2022/11/16 08:56:15;;;;;;;;;;;;;;;26.18;53.14;96192.17;605010;234;64940;-66
2022/11/16 08:58:45;;;;;;;;;;;;;;;26.19;53.47;96196.46;605040;234;66753;-66
2022/11/16 09:01:14;;;;;;;;;;;;;;;26.20;53.99;96187.26;605055;234;62493;-66
2022/11/16 09:03:42;;;;;;;;;;;;;;;26.21;53.07;96188.04;604968;234;67444;-65
2022/11/16 09:06:10;;;;;;;;;;;;;;;26.21;52.81;96183.44;605039;234;67464;-66
2022/11/16 09:08:39;;;;;;;;;;;;;;;26.22;54.93;96185.03;605048;234;65103;-65
2022/11/16 09:11:07;;;;;;;;;;;;;;;26.23;55.07;96185.81;604982;234;67296;-65
2022/11/16 09:13:35;;;;;;;;;;;;;;;26.23;53.98;96175.83;605136;234;65189;-64
2022/11/16 09:16:02;;;;;;;;;;;;;;;26.24;53.76;96180.09;605051;234;62758;-65
2022/11/16 09:18:30;;;;;;;;;;;;;;;26.24;54.33;96166.63;604966;234;65013;-68
2022/11/16 09:20:58;;;;;;;;;;;;;;;26.24;53.25;96165.84;605065;234;67033;-67
2022/11/16 09:23:26;;;;;;;;;;;;;;;26.25;53.13;96162.84;605078;234;65052;-67
2022/11/16 09:25:53;;;;;;;;;;;;;;;26.25;56.24;96160.14;604957;234;64510;-67
2022/11/16 09:28:22;;;;;;;;;;;;;;;26.26;53.41;96153.63;605094;234;64931;-67
2022/11/16 09:30:50;;;;;;;;;;;;;;;26.28;54.28;96151.41;604987;234;65030;-66
2022/11/16 09:33:18;;;;;;;;;;;;;;;26.28;54.55;96140.64;605028;234;67458;-66
2022/11/16 09:35:45;;;;;;;;;;;;;;;26.30;56.40;96137.59;605068;234;66818;-67
2022/11/16 09:38:13;;;;;;;;;;;;;;;26.29;52.45;96131.42;604971;234;62886;-68
2022/11/16 09:40:42;;;;;;;;;;;;;;;26.30;53.72;96130.33;605091;234;65024;-66
2022/11/16 09:43:17;;;;;;;;;;;;;;;26.31;55.05;96129.20;605021;234;66872;-68
2022/11/16 09:46:02;;;;;;;;;;;;;;;26.31;53.71;96123.81;605011;234;62896;-67
2022/11/16 09:48:31;;;;;;;;;;;;;;;26.33;55.39;96118.12;605053;234;64932;-68
2022/11/16 09:51:01;;;;;;;;;;;;;;;26.32;53.90;96108.44;608951;232;64888;-68
2022/11/16 09:53:39;;;;;;;;;;;;;;;26.32;52.64;96098.45;611891;232;64889;-68
2022/11/16 09:56:09;;;;;;;;;;;;;;;26.33;55.14;96100.05;611979;232;68151;-68
2022/11/16 09:58:41;;;;;;;;;;;;;;;26.34;55.64;96092.75;611841;232;66955;-68
2022/11/16 10:01:22;;;;;;;;;;;;;;;26.34;55.81;96084.67;611887;232;63030;-75
2022/11/16 10:03:51;;;;;;;;;;;;;;;26.34;53.70;96079.28;611996;232;68004;-73
2022/11/16 10:06:26;;;;;;;;;;;;;;;26.34;54.28;96080.06;611900;232;65058;-71
2022/11/16 10:08:56;;;;;;;;;;;;;;;26.35;54.27;96076.27;611072;232;64599;-73
2022/11/16 10:11:28;;;;;;;;;;;;;;;26.37;55.36;96072.45;611999;232;65095;-73
2022/11/16 10:14:03;;;;;;;;;;;;;;;26.37;53.08;96062.45;602310;232;65598;-72
2022/11/16 10:16:41;;;;;;;;;;;;;;;26.38;54.29;96064.02;611921;232;65076;-77
2022/11/16 10:19:13;;;;;;;;;;;;;;;26.39;54.15;96054.06;611841;232;65054;-74
2022/11/16 10:21:42;;;;;;;;;;;;;;;26.39;53.96;96054.84;602188;232;67461;-75
2022/11/16 10:24:14;;;;;;;;;;;;;;;26.39;52.37;96048.67;611730;232;62641;-74
2022/11/16 10:26:44;;;;;;;;;;;;;;;26.41;54.08;96046.41;611989;232;65000;-75
2022/11/16 10:29:18;;;;;;;;;;;;;;;26.40;53.68;96044.85;611717;232;64945;-76
2022/11/16 10:31:50;;;;;;;;;;;;;;;26.41;53.85;96043.72;611598;231;65190;-75
2022/11/16 10:34:24;;;;;;;;;;;;;;;26.41;54.10;96036.45;611967;232;67211;-74
2022/11/16 10:36:53;;;;;;;;;;;;;;;26.42;54.46;96031.84;611897;232;66856;-74
2022/11/16 10:39:21;;;;;;;;;;;;;;;26.42;54.02;96026.45;611861;232;65076;-75
2022/11/16 10:41:49;;;;;;;;;;;;;;;26.43;54.67;96019.94;612033;232;66893;-75
2022/11/16 10:44:21;;;;;;;;;;;;;;;26.42;54.81;96010.30;611886;232;66721;-74
2022/11/16 10:46:50;;;;;;;;;;;;;;;26.42;53.78;96010.30;611641;232;62973;-72
2022/11/16 10:49:22;;;;;;;;;;;;;;;26.39;54.12;96009.05;610902;232;66052;-72
2022/11/16 10:51:50;;;;;;;;;;;;;;;26.38;54.43;96006.67;605306;232;64836;-74
2022/11/16 10:54:17;;;;;;;;;;;;;;;26.39;54.63;96005.58;605058;234;62990;-74
2022/11/16 10:56:46;;;;;;;;;;;;;;;26.37;52.46;96008.58;605021;234;64868;-74
2022/11/16 10:59:15;;;;;;;;;;;;;;;26.37;54.17;96008.58;605056;234;67364;-74
2022/11/16 11:01:46;;;;;;;;;;;;;;;26.37;55.09;96002.41;604977;234;65547;-74
2022/11/16 11:04:24;;;;;;;;;;;;;;;26.35;53.68;95998.16;605052;234;67191;-74
2022/11/16 11:06:56;;;;;;;;;;;;;;;26.37;54.38;95988.95;605047;234;67034;-74
2022/11/16 11:09:25;;;;;;;;;;;;;;;26.35;52.40;95981.99;605045;234;63032;-74
2022/11/16 11:15:01;;;;;;;;;;;;;;;26.35;55.22;95979.30;605107;234;64835;-74
2022/11/16 11:17:30;;;;;;;;;;;;;;;26.35;55.80;95981.99;605078;234;65225;-74
2022/11/16 11:19:59;;;;;;;;;;;;;;;26.35;55.86;95981.19;605014;234;67030;-74
2022/11/16 11:22:30;;;;;;;;;;;;;;;26.33;51.10;95976.14;604978;234;48031;-74
2022/11/16 11:24:58;;;;;;;;;;;;;;;26.33;51.97;95969.97;605055;234;63817;-75
2022/11/16 11:27:27;;;;;;;;;;;;;;;26.34;55.03;95971.54;605163;234;64975;-73
2022/11/16 11:29:57;;;;;;;;;;;;;;;26.34;55.47;95971.54;605129;234;66498;-74
2022/11/16 11:32:32;;;;;;;;;;;;;;;26.33;55.35;95976.14;605056;234;63046;-73
2022/11/16 11:35:00;;;;;;;;;;;;;;;26.32;50.18;95977.24;605076;234;64418;-73
2022/11/16 11:37:32;;;;;;;;;;;;;;;26.34;54.78;95972.32;605070;234;67134;-73
2022/11/16 11:40:11;;;;;;;;;;;;;;;26.33;53.31;95967.28;605039;234;62947;-73
2022/11/16 11:42:40;;;;;;;;;;;;;;;26.32;54.55;95958.39;605131;234;66922;-74
2022/11/16 11:45:08;;;;;;;;;;;;;;;26.34;53.33;95960.77;605095;234;66738;-74
2022/11/16 11:47:43;;;;;;;;;;;;;;;26.34;53.10;95964.23;605052;234;65039;-73
2022/11/16 11:50:12;;;;;;;;;;;;;;;26.34;54.47;95958.07;606528;231;64717;-73
2022/11/16 11:52:41;;;;;;;;;;;;;;;26.34;54.93;95956.16;612034;232;67051;-73
2022/11/16 11:55:10;;;;;;;;;;;;;;;26.33;52.29;95959.98;601577;232;64956;-73
2022/11/16 11:57:39;;;;;;;;;;;;;;;26.34;53.73;95952.69;611770;232;66949;-73
2022/11/16 12:00:09;;;;;;;;;;;;;;;26.33;50.60;95949.20;611982;232;64785;-73
2022/11/16 12:02:42;;;;;;;;;;;;;;;26.32;52.37;95947.61;611939;232;45291;-73
2022/11/16 12:05:11;;;;;;;;;;;;;;;26.32;55.10;95936.06;612017;232;67512;-73
2022/11/16 12:07:52;;;;;;;;;;;;;;;26.30;53.62;95933.72;611374;231;64732;-73
2022/11/16 12:10:21;;;;;;;;;;;;;;;26.29;52.38;95934.03;611827;232;62904;-73
2022/11/16 12:12:53;;;;;;;;;;;;;;;26.28;53.16;95930.55;611954;232;65726;-74
2022/11/16 13:33:48;;;;;;;;;;;;;;;26.12;54.22;95897.28;602684;235;66595;-65
2022/11/16 13:36:33;;;;;;;;;;;;;;;26.14;51.14;95892.36;608404;232;62781;-63
2022/11/16 13:39:00;;;;;;;;;;;;;;;26.18;51.05;95893.26;608639;233;67261;-63
2022/11/16 13:41:32;;;;;;;;;;;;;;;26.23;51.46;95897.66;601455;236;66956;-64
2022/11/16 13:44:00;;;;;;;;;;;;;;;26.25;53.77;95895.44;605676;234;65062;-67
2022/11/16 13:46:44;;;;;;;;;;;;;;;26.26;51.52;95889.70;608549;233;67246;-66
2022/11/16 13:49:21;;;;;;;;;;;;;;;26.28;52.53;95887.47;608557;232;65016;-65
2022/11/16 13:52:06;;;;;;;;;;;;;;;26.31;52.55;95888.70;608412;233;63837;-66
2022/11/16 13:54:39;;;;;;;;;;;;;;;26.31;53.42;95892.19;601243;236;64799;-66
2022/11/16 13:57:26;;;;;;;;;;;;;;;26.33;51.04;95894.56;608442;233;67169;-68
2022/11/16 14:00:03;;;;;;;;;;;;;;;26.35;52.43;95903.07;607956;232;45432;-66
2022/11/16 14:02:32;;;;;;;;;;;;;;;26.35;52.21;95911.96;607840;233;67059;-66
2022/11/16 14:05:13;;;;;;;;;;;;;;;26.38;51.74;95909.70;607975;233;67091;-67
2022/11/16 14:07:51;;;;;;;;;;;;;;;26.38;52.72;95910.48;608007;233;65243;-66
2022/11/16 14:10:31;;;;;;;;;;;;;;;26.39;52.48;95908.60;607563;233;65001;-66
2022/11/16 14:13:06;;;;;;;;;;;;;;;26.39;54.01;95911.30;608024;233;67034;-66
2022/11/16 14:15:37;;;;;;;;;;;;;;;26.39;53.18;95904.00;608032;233;65255;-67
2022/11/16 14:18:10;;;;;;;;;;;;;;;26.40;51.76;95902.08;608044;233;64696;-67
2022/11/16 14:20:39;;;;;;;;;;;;;;;26.41;53.07;95909.03;608087;233;66780;-66
2022/11/16 14:23:24;;;;;;;;;;;;;;;26.41;53.07;95907.15;608037;233;63016;-65
2022/11/16 14:25:53;;;;;;;;;;;;;;;26.41;52.92;95909.84;608110;233;67211;-67
2022/11/16 14:28:23;;;;;;;;;;;;;;;26.42;52.70;95913.32;607134;233;67490;-64
2022/11/16 14:30:52;;;;;;;;;;;;;;;26.42;52.84;95908.71;607997;233;63066;-65
2022/11/16 14:33:33;;;;;;;;;;;;;;;26.42;52.96;95902.55;602458;233;64958;-66
2022/11/16 14:36:02;;;;;;;;;;;;;;;26.41;51.53;95903.64;602302;235;65009;-71
2022/11/16 14:38:32;;;;;;;;;;;;;;;26.42;52.05;95899.85;602276;235;63087;-68
2022/11/16 14:41:01;;;;;;;;;;;;;;;26.42;53.19;95902.55;602341;235;64923;-69
2022/11/16 14:43:42;;;;;;;;;;;;;;;26.41;52.42;95904.45;602395;235;67079;-68
2022/11/16 14:46:17;;;;;;;;;;;;;;;26.42;53.03;95905.23;602386;235;64855;-66
2022/11/16 14:48:45;;;;;;;;;;;;;;;26.42;51.59;95905.23;600748;235;66902;-65
2022/11/16 14:51:14;;;;;;;;;;;;;;;26.40;54.29;95905.55;602330;235;67064;-66
2022/11/16 14:53:43;;;;;;;;;;;;;;;26.39;53.30;95893.22;602330;235;63033;-66
2022/11/16 14:56:11;;;;;;;;;;;;;;;26.39;53.09;95901.30;602314;234;65163;-66
2022/11/16 14:58:39;;;;;;;;;;;;;;;26.39;53.60;95895.91;602285;235;67064;-68
2022/11/16 15:01:08;;;;;;;;;;;;;;;26.39;53.50;95901.30;602359;235;64920;-65
2022/11/16 15:03:40;;;;;;;;;;;;;;;26.37;51.90;95903.53;602152;234;65003;-66
2022/11/16 15:06:08;;;;;;;;;;;;;;;26.39;52.92;95908.60;601519;235;67186;-67